Главная страница
METAR-TAF:

METAR-TAF

Аэропорты :

Центральная вертолётная станция Манхэттена

Нью-Йорк, Нью-Йорк, США

широта: 40-42-04N, долгота: 074-00-32W, высота над уровнем моря: 2 м

Текущие метеонаблюдения

Эта сводка был подготовлена 39 минут назад, в 10:56 UTC
Ветер 4 Узел от западный
Температура 18°C
Влажность 73%
Давление 1015 hPa
Видимость: 16.1 км
ясное небо

METAR: KJRB 241056Z AUTO 28004KT 10SM CLR 18/13 A2997 RMK AO2 SLP148 T01830128

Время: 07:35 (11:35 UTC)


TAF: отсутствует

Метеонаблюдения и прогнозы для более 4000 аэропортов (сводки METAR и TAF).

Имеющиеся станции представлены на карте желтыми и красными точками.

Чтобы увидеть название станции, наведите на нее мышь.

Затем щелкните, чтобы увидеть метеонаблюдения и метеопрогнозы.

Управление картой: чтобы увеличить масштаб, щелкните зеленые кнопки с черным крестиком; чтобы уменьшить масштаб, щелкните зеленую кнопку с тире; для просмотра соседних карт щелкайте зеленые стрелки.


METAR-TAF: